Time;durP1;ratioP1;P1;durP2;ratioP2;P2;SDS_P1;SDS_P2;PMS_P1;PMS_P2;Temp;Humidity;BMP_temperature;BMP_pressure;BME280_temperature;BME280_humidity;BME280_pressure;Samples;Min_cycle;Max_cycle;Signal;HPM_P1;HPM_P2
2024/01/26 00:00:09;;;;;;;16.23;8.07;;;;;;;;;;5033799;28;20456;-91
2024/01/26 00:02:36;;;;;;;19.88;7.45;;;;;;;;;;5034226;28;20050;-90
2024/01/26 00:05:04;;;;;;;18.90;7.88;;;;;;;;;;5033753;28;20103;-91
2024/01/26 00:07:32;;;;;;;18.67;7.65;;;;;;;;;;5024943;28;20076;-91
2024/01/26 00:09:59;;;;;;;17.90;7.93;;;;;;;;;;5033118;28;20132;-91
2024/01/26 00:12:26;;;;;;;18.58;7.28;;;;;;;;;;5032606;28;20053;-91
2024/01/26 00:14:54;;;;;;;17.90;7.15;;;;;;;;;;5032915;28;20045;-90
2024/01/26 00:17:21;;;;;;;16.65;7.40;;;;;;;;;;5032415;28;20077;-90
2024/01/26 00:19:48;;;;;;;15.10;7.13;;;;;;;;;;5033043;28;20053;-91
2024/01/26 00:22:15;;;;;;;18.75;7.32;;;;;;;;;;5026247;28;20123;-91
2024/01/26 00:24:42;;;;;;;13.80;6.60;;;;;;;;;;5052732;28;20067;-91
2024/01/26 00:27:10;;;;;;;15.27;6.78;;;;;;;;;;5040531;28;20045;-91
2024/01/26 00:29:37;;;;;;;17.23;7.25;;;;;;;;;;5032576;28;20049;-91
2024/01/26 00:32:04;;;;;;;17.65;7.40;;;;;;;;;;5032320;28;20049;-91
2024/01/26 00:34:32;;;;;;;21.25;7.28;;;;;;;;;;5032759;28;20092;-91
2024/01/26 00:37:01;;;;;;;19.67;8.60;;;;;;;;;;5032581;28;20136;-91
2024/01/26 00:39:29;;;;;;;20.95;7.93;;;;;;;;;;5032545;28;20049;-91
2024/01/26 00:41:56;;;;;;;21.77;7.78;;;;;;;;;;5032944;28;20163;-91
2024/01/26 00:44:23;;;;;;;20.17;7.82;;;;;;;;;;5032246;28;20497;-91
2024/01/26 00:46:50;;;;;;;17.90;7.95;;;;;;;;;;5028765;28;20073;-91
2024/01/26 00:49:17;;;;;;;17.25;7.53;;;;;;;;;;5045670;28;20050;-91
2024/01/26 00:51:45;;;;;;;16.50;8.32;;;;;;;;;;5032589;28;20405;-91
2024/01/26 00:54:12;;;;;;;18.55;7.68;;;;;;;;;;5032068;28;20405;-91
2024/01/26 00:56:40;;;;;;;22.30;7.93;;;;;;;;;;5032227;28;20099;-90
2024/01/26 00:59:07;;;;;;;23.13;8.70;;;;;;;;;;5035620;28;20080;-91
2024/01/26 01:01:34;;;;;;;27.98;8.02;;;;;;;;;;5036504;28;20452;-91
2024/01/26 01:04:02;;;;;;;13.02;6.90;;;;;;;;;;5036672;28;20049;-91
2024/01/26 01:06:29;;;;;;;22.00;7.75;;;;;;;;;;5036001;28;20073;-91
2024/01/26 01:08:56;;;;;;;28.48;8.38;;;;;;;;;;5036207;28;20484;-90
2024/01/26 01:11:24;;;;;;;17.90;8.50;;;;;;;;;;5036055;28;20049;-91
2024/01/26 01:13:51;;;;;;;22.00;8.55;;;;;;;;;;5043109;28;20160;-91
2024/01/26 01:16:20;;;;;;;19.55;8.30;;;;;;;;;;5040558;28;20057;-91
2024/01/26 01:18:48;;;;;;;19.83;8.13;;;;;;;;;;5038555;28;20053;-90
2024/01/26 01:21:15;;;;;;;16.17;7.93;;;;;;;;;;5036084;28;20512;-91
2024/01/26 01:23:42;;;;;;;18.98;7.28;;;;;;;;;;5036040;28;20482;-92
2024/01/26 01:26:10;;;;;;;24.88;8.40;;;;;;;;;;5035559;28;20049;-91
2024/01/26 01:28:37;;;;;;;21.25;8.70;;;;;;;;;;5036047;28;20081;-91
2024/01/26 01:31:04;;;;;;;21.60;7.97;;;;;;;;;;5036045;28;20080;-91
2024/01/26 01:33:31;;;;;;;23.52;8.27;;;;;;;;;;5027943;28;20099;-91
2024/01/26 01:36:00;;;;;;;19.95;8.38;;;;;;;;;;5036487;28;20054;-91
2024/01/26 01:38:27;;;;;;;26.42;8.63;;;;;;;;;;5054456;28;20069;-91
2024/01/26 01:40:54;;;;;;;16.85;7.70;;;;;;;;;;5050201;28;20320;-91
2024/01/26 01:43:21;;;;;;;23.15;7.80;;;;;;;;;;5035505;28;20103;-91
2024/01/26 01:45:49;;;;;;;18.45;7.35;;;;;;;;;;5035430;28;20049;-91
2024/01/26 01:48:16;;;;;;;19.60;8.70;;;;;;;;;;5035554;28;20049;-92
2024/01/26 01:50:44;;;;;;;20.80;7.35;;;;;;;;;;5035471;28;20540;-91
2024/01/26 01:53:12;;;;;;;18.80;8.20;;;;;;;;;;5035510;28;20061;-91
2024/01/26 01:55:40;;;;;;;21.67;8.82;;;;;;;;;;5035245;28;20053;-91
2024/01/26 01:58:08;;;;;;;23.83;8.95;;;;;;;;;;5035635;28;20080;-91
2024/01/26 02:00:35;;;;;;;22.08;7.55;;;;;;;;;;5035404;28;20520;-91
2024/01/26 02:03:03;;;;;;;24.20;9.38;;;;;;;;;;5035179;28;20046;-92
2024/01/26 02:05:30;;;;;;;17.98;7.45;;;;;;;;;;5027031;28;20493;-91
2024/01/26 02:07:58;;;;;;;26.77;7.90;;;;;;;;;;5034905;28;20049;-91
2024/01/26 02:10:25;;;;;;;22.80;8.13;;;;;;;;;;5034554;28;20057;-92
2024/01/26 02:12:52;;;;;;;19.85;8.32;;;;;;;;;;5035039;28;20057;-91
2024/01/26 02:15:20;;;;;;;14.98;8.30;;;;;;;;;;5033651;28;20492;-91
2024/01/26 02:17:47;;;;;;;19.10;7.72;;;;;;;;;;5035112;28;20049;-91
2024/01/26 02:20:14;;;;;;;16.83;7.85;;;;;;;;;;5034914;28;20073;-91
2024/01/26 02:22:41;;;;;;;18.50;7.78;;;;;;;;;;5034832;28;20057;-91
2024/01/26 02:25:08;;;;;;;14.35;7.35;;;;;;;;;;5034997;28;20053;-91
2024/01/26 02:27:36;;;;;;;22.10;8.73;;;;;;;;;;5034615;28;20049;-91
2024/01/26 02:30:04;;;;;;;22.98;7.35;;;;;;;;;;5034946;28;20046;-91
2024/01/26 02:32:32;;;;;;;17.58;7.68;;;;;;;;;;5026855;28;20477;-91
2024/01/26 02:35:00;;;;;;;25.15;8.50;;;;;;;;;;5034566;28;20077;-91
2024/01/26 02:37:27;;;;;;;25.60;8.55;;;;;;;;;;5034524;28;20478;-91
2024/01/26 02:39:54;;;;;;;22.85;7.47;;;;;;;;;;5034826;28;20477;-91
2024/01/26 02:42:21;;;;;;;18.90;7.85;;;;;;;;;;5026304;28;20062;-91
2024/01/26 02:44:48;;;;;;;28.92;7.50;;;;;;;;;;5034621;28;20045;-91
2024/01/26 02:47:16;;;;;;;21.35;8.05;;;;;;;;;;5034199;28;20050;-91
2024/01/26 02:49:43;;;;;;;19.45;8.40;;;;;;;;;;5035218;28;20148;-91
2024/01/26 02:52:10;;;;;;;16.98;7.65;;;;;;;;;;5051163;28;20053;-91
2024/01/26 02:54:37;;;;;;;23.55;8.27;;;;;;;;;;5049700;28;20103;-91
2024/01/26 02:57:05;;;;;;;21.45;7.55;;;;;;;;;;5034266;28;20140;-90
2024/01/26 02:59:32;;;;;;;21.50;7.13;;;;;;;;;;5033950;28;20502;-91
2024/01/26 03:01:59;;;;;;;22.02;7.82;;;;;;;;;;5033866;28;20061;-91
2024/01/26 03:04:26;;;;;;;19.83;7.10;;;;;;;;;;5034104;28;20099;-91
2024/01/26 03:06:55;;;;;;;21.13;7.97;;;;;;;;;;5033859;28;20065;-91
2024/01/26 03:09:23;;;;;;;23.27;9.52;;;;;;;;;;5033160;28;20470;-91
2024/01/26 03:11:50;;;;;;;24.10;8.23;;;;;;;;;;5034162;28;20108;-91
2024/01/26 03:14:18;;;;;;;19.00;7.72;;;;;;;;;;5033874;28;20054;-91
2024/01/26 03:16:46;;;;;;;16.77;7.32;;;;;;;;;;5033800;28;20068;-90
2024/01/26 03:19:14;;;;;;;19.02;8.05;;;;;;;;;;5034067;28;20046;-90
2024/01/26 03:21:44;;;;;;;25.05;8.05;;;;;;;;;;5032987;28;20140;-91
2024/01/26 03:24:12;;;;;;;24.45;7.63;;;;;;;;;;5033855;28;20045;-91
2024/01/26 03:26:40;;;;;;;22.63;7.47;;;;;;;;;;5033474;28;20053;-91
2024/01/26 03:29:07;;;;;;;17.58;7.40;;;;;;;;;;5033530;28;20081;-91
2024/01/26 03:31:34;;;;;;;18.80;7.07;;;;;;;;;;5033566;28;20107;-91
2024/01/26 03:34:02;;;;;;;29.05;7.40;;;;;;;;;;5033745;28;20053;-91
2024/01/26 03:36:29;;;;;;;23.77;7.25;;;;;;;;;;5033355;28;20050;-91
2024/01/26 03:38:56;;;;;;;15.25;6.63;;;;;;;;;;5033645;28;20053;-91
2024/01/26 03:41:24;;;;;;;18.20;6.75;;;;;;;;;;5033465;28;20076;-91
2024/01/26 03:43:52;;;;;;;24.70;7.53;;;;;;;;;;5033558;28;20064;-89
2024/01/26 03:46:20;;;;;;;15.05;5.75;;;;;;;;;;5033546;28;20059;-91
2024/01/26 03:48:48;;;;;;;21.20;5.07;;;;;;;;;;5033586;28;20053;-91
2024/01/26 03:51:16;;;;;;;29.15;7.65;;;;;;;;;;5033569;28;20493;-91
2024/01/26 03:53:43;;;;;;;15.95;6.15;;;;;;;;;;5033216;28;20050;-91
2024/01/26 03:56:11;;;;;;;13.63;5.40;;;;;;;;;;5033379;28;20145;-90
2024/01/26 03:58:38;;;;;;;2.35;2.03;;;;;;;;;;5033370;28;20060;-90
2024/01/26 04:01:05;;;;;;;14.60;4.97;;;;;;;;;;5030085;28;20054;-91
2024/01/26 04:03:32;;;;;;;4.50;2.50;;;;;;;;;;5033861;28;20057;-91
2024/01/26 04:06:03;;;;;;;3.95;2.75;;;;;;;;;;5049537;28;20101;-91
2024/01/26 04:08:31;;;;;;;4.88;3.08;;;;;;;;;;5037950;28;20057;-91
2024/01/26 04:10:58;;;;;;;6.25;4.13;;;;;;;;;;5033061;28;20049;-91
2024/01/26 04:13:26;;;;;;;4.88;3.35;;;;;;;;;;5033443;28;20057;-91
2024/01/26 04:15:53;;;;;;;2.13;1.67;;;;;;;;;;5033282;28;20073;-91
2024/01/26 04:18:20;;;;;;;2.45;1.65;;;;;;;;;;5033187;28;20053;-91
2024/01/26 04:20:51;;;;;;;1.50;1.40;;;;;;;;;;5033190;28;20045;-91
2024/01/26 04:23:18;;;;;;;1.65;1.40;;;;;;;;;;5033162;28;20057;-90
2024/01/26 04:25:46;;;;;;;1.67;1.58;;;;;;;;;;5033081;28;20045;-91
2024/01/26 04:28:13;;;;;;;1.50;1.50;;;;;;;;;;5032886;28;20051;-91
2024/01/26 04:30:43;;;;;;;1.30;1.30;;;;;;;;;;5032713;28;20129;-91
2024/01/26 04:33:10;;;;;;;1.13;1.10;;;;;;;;;;5032382;28;20069;-92
2024/01/26 04:35:37;;;;;;;0.90;0.90;;;;;;;;;;5033169;28;20064;-92
2024/01/26 04:38:07;;;;;;;0.82;0.82;;;;;;;;;;5033345;28;20054;-91
2024/01/26 04:40:34;;;;;;;1.15;1.05;;;;;;;;;;5032942;28;20076;-90
2024/01/26 04:43:02;;;;;;;1.00;1.00;;;;;;;;;;5032693;28;20076;-90
2024/01/26 04:45:30;;;;;;;0.98;0.98;;;;;;;;;;5024005;28;20482;-91
2024/01/26 04:47:57;;;;;;;1.30;0.98;;;;;;;;;;5032394;28;20046;-91
2024/01/26 04:50:24;;;;;;;1.05;1.05;;;;;;;;;;5032546;28;20417;-91
2024/01/26 04:52:52;;;;;;;1.05;1.05;;;;;;;;;;5032454;28;20060;-90
2024/01/26 04:55:25;;;;;;;1.15;1.05;;;;;;;;;;5031773;28;20418;-90
2024/01/26 04:57:53;;;;;;;1.13;1.10;;;;;;;;;;5032751;28;20045;-91
2024/01/26 05:00:20;;;;;;;1.23;0.98;;;;;;;;;;5032380;28;20057;-91
2024/01/26 05:02:48;;;;;;;1.27;1.17;;;;;;;;;;5032283;28;20054;-91
2024/01/26 05:05:15;;;;;;;1.02;1.02;;;;;;;;;;5032229;28;20482;-91
2024/01/26 05:07:43;;;;;;;1.67;1.25;;;;;;;;;;5032410;28;20468;-91
2024/01/26 05:10:15;;;;;;;1.10;1.00;;;;;;;;;;5032416;28;20050;-91
2024/01/26 05:12:42;;;;;;;1.02;1.02;;;;;;;;;;5032784;28;20472;-90
2024/01/26 05:15:11;;;;;;;1.35;1.35;;;;;;;;;;5032308;28;20100;-90
2024/01/26 05:17:39;;;;;;;2.17;2.00;;;;;;;;;;5032539;28;20060;-91
2024/01/26 05:20:07;;;;;;;1.77;1.67;;;;;;;;;;5048279;28;20052;-90
2024/01/26 05:22:34;;;;;;;1.25;1.15;;;;;;;;;;5043202;28;20084;-90
2024/01/26 05:25:01;;;;;;;1.23;1.23;;;;;;;;;;5031986;28;20107;-91
2024/01/26 05:27:29;;;;;;;1.30;1.30;;;;;;;;;;5032451;28;20057;-91
2024/01/26 05:29:57;;;;;;;1.80;1.70;;;;;;;;;;5032242;28;20420;-90
2024/01/26 05:32:24;;;;;;;13.80;10.75;;;;;;;;;;5031849;28;20049;-91
2024/01/26 05:34:52;;;;;;;26.55;16.60;;;;;;;;;;5032223;28;20061;-91
2024/01/26 05:37:19;;;;;;;49.53;26.35;;;;;;;;;;5031968;28;20052;-92
2024/01/26 05:39:46;;;;;;;8.20;5.78;;;;;;;;;;5028583;28;20081;-91
2024/01/26 05:42:14;;;;;;;7.07;6.03;;;;;;;;;;5046412;28;20080;-91
2024/01/26 05:44:41;;;;;;;9.32;7.53;;;;;;;;;;5033201;28;20057;-91
2024/01/26 05:47:08;;;;;;;6.85;6.25;;;;;;;;;;5032671;28;20050;-90
2024/01/26 05:49:35;;;;;;;3.42;3.22;;;;;;;;;;5035433;28;20053;-91
2024/01/26 05:52:03;;;;;;;2.42;2.22;;;;;;;;;;5035455;28;20260;-89
2024/01/26 05:54:30;;;;;;;1.80;1.70;;;;;;;;;;5035194;28;20115;-90
2024/01/26 05:56:57;;;;;;;3.20;2.10;;;;;;;;;;5033886;28;20069;-92
2024/01/26 05:59:24;;;;;;;1.83;1.73;;;;;;;;;;5035817;28;20056;-90
2024/01/26 06:01:52;;;;;;;2.30;2.20;;;;;;;;;;5035641;28;20493;-90
2024/01/26 06:04:19;;;;;;;1.65;1.65;;;;;;;;;;5035154;28;20057;-91
2024/01/26 06:06:46;;;;;;;1.48;1.38;;;;;;;;;;5035212;28;20053;-90
2024/01/26 06:09:15;;;;;;;1.08;1.08;;;;;;;;;;5033196;28;20049;-90
2024/01/26 06:11:43;;;;;;;1.23;1.17;;;;;;;;;;5035322;28;20045;-90
2024/01/26 06:14:11;;;;;;;1.40;1.30;;;;;;;;;;5035363;28;20080;-90
2024/01/26 06:16:38;;;;;;;0.98;0.98;;;;;;;;;;5035580;28;20176;-90
2024/01/26 06:19:05;;;;;;;1.92;1.10;;;;;;;;;;5035142;28;20076;-89
2024/01/26 06:21:33;;;;;;;1.25;1.25;;;;;;;;;;5034935;28;20053;-90
2024/01/26 06:24:00;;;;;;;1.48;1.38;;;;;;;;;;5034391;28;20104;-90
2024/01/26 06:26:27;;;;;;;1.60;1.50;;;;;;;;;;5034420;28;20049;-91
2024/01/26 06:28:55;;;;;;;1.63;1.23;;;;;;;;;;5034573;28;20438;-91
2024/01/26 06:31:26;;;;;;;1.48;1.38;;;;;;;;;;5034902;28;20477;-92
2024/01/26 06:33:53;;;;;;;0.60;0.60;;;;;;;;;;5043582;28;20107;-91
2024/01/26 06:36:21;;;;;;;1.65;0.88;;;;;;;;;;5049167;28;20042;-91
2024/01/26 06:38:48;;;;;;;1.20;1.10;;;;;;;;;;5034779;28;20053;-90
2024/01/26 06:41:15;;;;;;;2.08;1.98;;;;;;;;;;5032451;28;20050;-89
2024/01/26 06:43:50;;;;;;;0.82;0.82;;;;;;;;;;5034541;28;20050;-91
2024/01/26 06:46:22;;;;;;;0.90;0.90;;;;;;;;;;5034283;28;20388;-91
2024/01/26 06:48:50;;;;;;;0.70;0.70;;;;;;;;;;5034685;28;20057;-90
2024/01/26 06:51:17;;;;;;;0.75;0.75;;;;;;;;;;5033041;28;20103;-90
2024/01/26 06:53:45;;;;;;;0.80;0.80;;;;;;;;;;5034178;28;20062;-90
2024/01/26 06:56:12;;;;;;;0.68;0.68;;;;;;;;;;5034229;28;20049;-90
2024/01/26 06:58:39;;;;;;;0.85;0.85;;;;;;;;;;5034481;28;20045;-89
2024/01/26 07:01:06;;;;;;;0.90;0.90;;;;;;;;;;5031078;28;20049;-90
2024/01/26 07:03:34;;;;;;;1.75;0.70;;;;;;;;;;5034234;28;20197;-90
2024/01/26 07:06:01;;;;;;;0.63;0.63;;;;;;;;;;5031002;28;20129;-91
2024/01/26 07:08:29;;;;;;;0.50;0.50;;;;;;;;;;5050095;28;20148;-90
2024/01/26 07:10:56;;;;;;;0.60;0.60;;;;;;;;;;5034508;28;20128;-90
2024/01/26 07:13:23;;;;;;;1.00;1.00;;;;;;;;;;5034040;28;20050;-91
2024/01/26 07:15:51;;;;;;;2.15;2.05;;;;;;;;;;5030635;28;20054;-90
2024/01/26 07:18:18;;;;;;;0.98;0.98;;;;;;;;;;5048959;28;20061;-90
2024/01/26 07:20:46;;;;;;;0.60;0.60;;;;;;;;;;5033970;28;20063;-90
2024/01/26 07:23:13;;;;;;;0.57;0.57;;;;;;;;;;5033793;28;20050;-91
2024/01/26 07:25:40;;;;;;;0.30;0.30;;;;;;;;;;5033810;28;20050;-90
2024/01/26 07:28:07;;;;;;;0.40;0.40;;;;;;;;;;5033775;28;20049;-91
2024/01/26 07:30:35;;;;;;;0.95;0.40;;;;;;;;;;5033908;28;20042;-90
2024/01/26 07:33:02;;;;;;;1.08;0.40;;;;;;;;;;5033886;28;20049;-91
2024/01/26 07:35:29;;;;;;;1.05;0.70;;;;;;;;;;5033549;28;20053;-90
2024/01/26 07:37:58;;;;;;;0.60;0.60;;;;;;;;;;5033901;28;20046;-91
2024/01/26 07:40:25;;;;;;;0.20;0.20;;;;;;;;;;5034022;28;20061;-90
2024/01/26 07:42:52;;;;;;;0.85;0.57;;;;;;;;;;5030230;28;20054;-91
2024/01/26 07:45:19;;;;;;;0.40;0.40;;;;;;;;;;5048695;28;20088;-91
2024/01/26 07:47:47;;;;;;;0.60;0.38;;;;;;;;;;5037543;28;20072;-90
2024/01/26 07:50:14;;;;;;;0.38;0.38;;;;;;;;;;5048460;28;20054;-90
2024/01/26 07:52:41;;;;;;;0.30;0.30;;;;;;;;;;5034783;28;20128;-91
2024/01/26 07:55:09;;;;;;;0.28;0.28;;;;;;;;;;5033214;28;20061;-91
2024/01/26 07:57:37;;;;;;;1.30;1.20;;;;;;;;;;5033485;28;20501;-91
2024/01/26 08:00:08;;;;;;;0.30;0.30;;;;;;;;;;5033315;28;20100;-91
2024/01/26 08:02:36;;;;;;;0.73;0.30;;;;;;;;;;5034028;28;20119;-90
2024/01/26 08:05:04;;;;;;;1.45;1.35;;;;;;;;;;5033311;28;20107;-90
2024/01/26 08:07:32;;;;;;;1.20;1.10;;;;;;;;;;5021724;28;20046;-90
2024/01/26 08:10:00;;;;;;;0.82;0.80;;;;;;;;;;5046080;28;20487;-91
2024/01/26 08:12:27;;;;;;;0.70;0.50;;;;;;;;;;5033517;28;20046;-91
2024/01/26 08:15:10;;;;;;;2.65;2.38;;;;;;;;;;5032990;28;20058;-90
2024/01/26 08:17:38;;;;;;;0.70;0.70;;;;;;;;;;5032958;28;20041;-91
2024/01/26 08:20:07;;;;;;;0.20;0.20;;;;;;;;;;5033197;28;20045;-90
2024/01/26 08:22:38;;;;;;;0.28;0.20;;;;;;;;;;5033071;28;20045;-91
2024/01/26 08:25:07;;;;;;;0.20;0.20;;;;;;;;;;5032599;28;20059;-90
2024/01/26 08:27:35;;;;;;;0.20;0.20;;;;;;;;;;5033409;28;20558;-92
2024/01/26 08:30:03;;;;;;;0.30;0.30;;;;;;;;;;5031846;28;20065;-92
2024/01/26 08:32:31;;;;;;;0.47;0.45;;;;;;;;;;5029680;28;20049;-91
2024/01/26 08:34:58;;;;;;;1.95;0.40;;;;;;;;;;5045296;28;20084;-91
2024/01/26 08:37:26;;;;;;;0.50;0.50;;;;;;;;;;5033041;28;20075;-91
2024/01/26 08:39:54;;;;;;;1.00;1.00;;;;;;;;;;5033115;28;20461;-90
2024/01/26 08:42:22;;;;;;;0.95;0.70;;;;;;;;;;5031845;28;20057;-90
2024/01/26 08:44:49;;;;;;;0.80;0.80;;;;;;;;;;5033000;28;20478;-90
2024/01/26 08:47:16;;;;;;;1.08;1.08;;;;;;;;;;5032774;28;20414;-91
2024/01/26 08:49:44;;;;;;;1.40;1.30;;;;;;;;;;5032406;28;20076;-90
2024/01/26 08:52:11;;;;;;;1.38;1.38;;;;;;;;;;5032806;28;20056;-90
2024/01/26 08:54:38;;;;;;;1.38;1.33;;;;;;;;;;5032271;28;20139;-89
2024/01/26 08:57:05;;;;;;;1.20;1.08;;;;;;;;;;5032649;28;20057;-90
2024/01/26 08:59:33;;;;;;;3.15;1.48;;;;;;;;;;5033009;28;20060;-91
2024/01/26 09:02:01;;;;;;;1.30;1.30;;;;;;;;;;5038288;28;20056;-89
2024/01/26 09:04:28;;;;;;;0.90;0.90;;;;;;;;;;5044796;28;20053;-90
2024/01/26 09:06:56;;;;;;;1.45;1.40;;;;;;;;;;5033394;28;20096;-90
2024/01/26 09:09:36;;;;;;;0.98;0.80;;;;;;;;;;5025081;28;20063;-91
2024/01/26 09:12:03;;;;;;;1.20;1.20;;;;;;;;;;5032544;28;20123;-89
2024/01/26 09:14:31;;;;;;;1.58;1.45;;;;;;;;;;5024473;28;20049;-91
2024/01/26 09:17:00;;;;;;;1.55;1.40;;;;;;;;;;5032620;28;20057;-90
2024/01/26 09:19:28;;;;;;;1.38;1.27;;;;;;;;;;5034883;28;20049;-90
2024/01/26 09:21:55;;;;;;;1.92;1.35;;;;;;;;;;5032600;28;20054;-90
2024/01/26 09:24:23;;;;;;;0.88;0.88;;;;;;;;;;5050725;28;20081;-89
2024/01/26 09:26:52;;;;;;;1.02;1.02;;;;;;;;;;5037136;28;20049;-90
2024/01/26 09:29:20;;;;;;;1.20;1.20;;;;;;;;;;5035762;28;20053;-91
2024/01/26 09:31:48;;;;;;;1.48;1.38;;;;;;;;;;5036279;28;20517;-90
2024/01/26 09:34:16;;;;;;;1.33;1.23;;;;;;;;;;5033753;28;20074;-90
2024/01/26 09:36:43;;;;;;;1.13;1.00;;;;;;;;;;5036006;28;20067;-91
2024/01/26 09:39:11;;;;;;;1.10;1.00;;;;;;;;;;5040677;28;20055;-91
2024/01/26 09:41:39;;;;;;;3.13;1.27;;;;;;;;;;5037046;28;20049;-91
2024/01/26 09:44:07;;;;;;;1.05;1.02;;;;;;;;;;5035964;28;20054;-90
2024/01/26 09:46:36;;;;;;;1.10;1.00;;;;;;;;;;5035930;28;20080;-90
2024/01/26 09:49:04;;;;;;;1.35;1.08;;;;;;;;;;5036133;28;20111;-90
2024/01/26 09:51:31;;;;;;;0.68;0.68;;;;;;;;;;5024053;28;20478;-91
2024/01/26 09:54:00;;;;;;;0.85;0.85;;;;;;;;;;5031537;28;20066;-90
2024/01/26 09:56:27;;;;;;;1.63;1.52;;;;;;;;;;5035621;28;20069;-89
2024/01/26 09:58:54;;;;;;;0.80;0.80;;;;;;;;;;5035909;28;20111;-90
2024/01/26 10:01:22;;;;;;;0.93;0.90;;;;;;;;;;5035542;28;20119;-89
2024/01/26 10:03:52;;;;;;;0.95;0.90;;;;;;;;;;5035588;28;20053;-90
2024/01/26 10:06:20;;;;;;;0.52;0.52;;;;;;;;;;5035793;28;20049;-91
2024/01/26 10:08:48;;;;;;;0.70;0.70;;;;;;;;;;5035589;28;20103;-91
2024/01/26 10:11:15;;;;;;;0.70;0.70;;;;;;;;;;5034954;28;20053;-89
2024/01/26 10:13:43;;;;;;;0.85;0.85;;;;;;;;;;5035435;28;20053;-89
2024/01/26 10:16:11;;;;;;;0.90;0.85;;;;;;;;;;5038516;28;20145;-90
2024/01/26 10:18:43;;;;;;;0.60;0.60;;;;;;;;;;5044770;28;20061;-90
2024/01/26 10:21:12;;;;;;;0.93;0.93;;;;;;;;;;5046675;28;20073;-90
2024/01/26 10:23:40;;;;;;;2.05;0.80;;;;;;;;;;5034979;28;20148;-89
2024/01/26 10:26:11;;;;;;;0.73;0.73;;;;;;;;;;5031595;28;20080;-89
2024/01/26 10:28:39;;;;;;;1.25;1.15;;;;;;;;;;5034582;28;20057;-90
2024/01/26 10:31:08;;;;;;;1.30;1.10;;;;;;;;;;5034383;28;20077;-90
2024/01/26 10:33:40;;;;;;;1.13;1.10;;;;;;;;;;5034947;28;20053;-91
2024/01/26 10:36:09;;;;;;;1.25;1.00;;;;;;;;;;5034476;28;20056;-92
2024/01/26 10:38:38;;;;;;;0.68;0.68;;;;;;;;;;5034607;28;20054;-90
2024/01/26 10:41:05;;;;;;;0.80;0.80;;;;;;;;;;5034619;28;20053;-88
2024/01/26 10:43:34;;;;;;;1.00;1.00;;;;;;;;;;5026862;28;20061;-89
2024/01/26 10:46:02;;;;;;;1.15;1.05;;;;;;;;;;5034366;28;20486;-92
2024/01/26 10:48:30;;;;;;;2.17;1.98;;;;;;;;;;5034180;28;20045;-91
2024/01/26 10:50:58;;;;;;;3.65;1.30;;;;;;;;;;5034861;28;20486;-89
2024/01/26 10:53:27;;;;;;;1.27;1.25;;;;;;;;;;5033776;28;20452;-93
2024/01/26 10:55:55;;;;;;;1.40;1.30;;;;;;;;;;5034423;28;20058;-89
2024/01/26 10:58:22;;;;;;;1.58;1.40;;;;;;;;;;5035267;28;20053;-90
2024/01/26 11:00:50;;;;;;;1.67;1.58;;;;;;;;;;5034365;28;20107;-88
2024/01/26 11:03:17;;;;;;;0.95;0.95;;;;;;;;;;5034173;28;20055;-90
2024/01/26 11:05:50;;;;;;;1.10;1.10;;;;;;;;;;5034100;28;20049;-91
2024/01/26 11:08:20;;;;;;;0.90;0.90;;;;;;;;;;5034256;28;20045;-90
2024/01/26 11:10:50;;;;;;;0.75;0.75;;;;;;;;;;5034423;28;20077;-90
2024/01/26 11:13:17;;;;;;;1.10;0.65;;;;;;;;;;5033852;28;20056;-91
2024/01/26 11:15:47;;;;;;;0.80;0.80;;;;;;;;;;5033873;28;20057;-91
2024/01/26 11:18:27;;;;;;;1.40;0.80;;;;;;;;;;5034245;28;20068;-89
2024/01/26 11:20:54;;;;;;;0.60;0.60;;;;;;;;;;5033958;28;20111;-90
2024/01/26 11:23:22;;;;;;;0.70;0.70;;;;;;;;;;5034783;28;20410;-90
2024/01/26 11:25:51;;;;;;;0.55;0.50;;;;;;;;;;5034288;28;20518;-90
2024/01/26 11:28:27;;;;;;;0.52;0.52;;;;;;;;;;5032047;28;20491;-91
2024/01/26 11:30:59;;;;;;;1.08;0.80;;;;;;;;;;5038882;28;20045;-89
2024/01/26 11:33:34;;;;;;;0.60;0.60;;;;;;;;;;5043953;28;20124;-90
2024/01/26 11:36:04;;;;;;;0.60;0.60;;;;;;;;;;5033617;28;20068;-90
2024/01/26 11:38:32;;;;;;;0.52;0.50;;;;;;;;;;5026793;28;20501;-89
2024/01/26 11:41:01;;;;;;;0.52;0.30;;;;;;;;;;5033805;28;20132;-91
2024/01/26 11:43:29;;;;;;;0.20;0.20;;;;;;;;;;5032327;28;20056;-90
2024/01/26 11:45:57;;;;;;;0.20;0.20;;;;;;;;;;5029326;28;20096;-90
2024/01/26 11:48:25;;;;;;;0.40;0.30;;;;;;;;;;5048421;28;20375;-89
2024/01/26 11:50:53;;;;;;;0.20;0.20;;;;;;;;;;5033135;28;20049;-89
2024/01/26 11:53:23;;;;;;;0.50;0.40;;;;;;;;;;5033189;28;20073;-90
2024/01/26 11:55:55;;;;;;;0.65;0.43;;;;;;;;;;5033228;28;20550;-90
2024/01/26 11:58:22;;;;;;;0.30;0.30;;;;;;;;;;5033275;28;20053;-89
2024/01/26 12:00:49;;;;;;;0.30;0.30;;;;;;;;;;5034314;28;20127;-89
2024/01/26 12:03:20;;;;;;;0.30;0.30;;;;;;;;;;5033227;28;20057;-90
2024/01/26 12:05:48;;;;;;;0.20;0.20;;;;;;;;;;5033358;28;20057;-90
2024/01/26 12:08:15;;;;;;;0.40;0.40;;;;;;;;;;5033227;28;20064;-89
2024/01/26 12:10:43;;;;;;;0.38;0.38;;;;;;;;;;5033116;28;20049;-90
2024/01/26 12:13:15;;;;;;;0.15;0.15;;;;;;;;;;5033301;28;20077;-90
2024/01/26 12:15:43;;;;;;;0.30;0.30;;;;;;;;;;5033241;28;20051;-90
2024/01/26 12:18:11;;;;;;;0.40;0.20;;;;;;;;;;5033004;28;20053;-91
2024/01/26 12:20:40;;;;;;;0.38;0.25;;;;;;;;;;5032886;28;20069;-92
2024/01/26 12:23:17;;;;;;;0.30;0.17;;;;;;;;;;5032975;28;20083;-89
2024/01/26 12:25:44;;;;;;;0.22;0.22;;;;;;;;;;5032936;28;20103;-90
2024/01/26 12:28:14;;;;;;;0.20;0.20;;;;;;;;;;5033379;28;20140;-89
2024/01/26 12:30:46;;;;;;;0.40;0.40;;;;;;;;;;5032813;28;20056;-90
2024/01/26 12:33:14;;;;;;;0.10;0.10;;;;;;;;;;5033178;28;20045;-89
2024/01/26 12:35:42;;;;;;;0.47;0.10;;;;;;;;;;5032550;28;20053;-89
2024/01/26 12:38:10;;;;;;;0.10;0.10;;;;;;;;;;5032588;28;20053;-90
2024/01/26 12:40:37;;;;;;;0.10;0.10;;;;;;;;;;5032615;28;20049;-92
2024/01/26 12:43:05;;;;;;;0.10;0.10;;;;;;;;;;5033164;28;20045;-89
2024/01/26 12:45:32;;;;;;;0.10;0.10;;;;;;;;;;5036742;28;20049;-90
2024/01/26 12:48:00;;;;;;;0.00;0.00;;;;;;;;;;5040891;28;20131;-90
2024/01/26 12:50:27;;;;;;;0.10;0.10;;;;;;;;;;5032463;28;20464;-90
2024/01/26 12:52:54;;;;;;;0.10;0.10;;;;;;;;;;5032803;28;20052;-90
2024/01/26 12:55:23;;;;;;;0.10;0.05;;;;;;;;;;5032388;28;20064;-90
2024/01/26 12:57:51;;;;;;;0.10;0.10;;;;;;;;;;5032956;28;20050;-89
2024/01/26 13:00:19;;;;;;;0.10;0.10;;;;;;;;;;5032849;28;20073;-91
2024/01/26 13:02:46;;;;;;;0.47;0.17;;;;;;;;;;5029376;28;20053;-91
2024/01/26 13:05:13;;;;;;;0.00;0.00;;;;;;;;;;5044473;28;20491;-89
2024/01/26 13:07:41;;;;;;;0.00;0.00;;;;;;;;;;5032536;28;20107;-91
2024/01/26 13:10:09;;;;;;;0.13;0.00;;;;;;;;;;5032076;28;20054;-89
2024/01/26 13:12:36;;;;;;;0.08;0.00;;;;;;;;;;5034041;28;20045;-89
2024/01/26 13:15:04;;;;;;;0.08;0.08;;;;;;;;;;5032282;28;20065;-91
2024/01/26 13:17:31;;;;;;;0.10;0.10;;;;;;;;;;5024353;28;20053;-90
2024/01/26 13:19:58;;;;;;;0.30;0.10;;;;;;;;;;5029321;28;20514;-91
2024/01/26 13:22:38;;;;;;;0.10;0.10;;;;;;;;;;5039621;28;20470;-90
2024/01/26 13:25:06;;;;;;;0.98;0.08;;;;;;;;;;5032445;28;20063;-88
2024/01/26 13:27:33;;;;;;;0.20;0.20;;;;;;;;;;5031899;28;20057;-90
2024/01/26 13:30:00;;;;;;;0.85;0.20;;;;;;;;;;5032130;28;20057;-90
2024/01/26 13:32:28;;;;;;;0.40;0.40;;;;;;;;;;5032437;28;20052;-88
2024/01/26 13:34:56;;;;;;;0.20;0.17;;;;;;;;;;5032162;28;20049;-90
2024/01/26 13:37:23;;;;;;;0.30;0.30;;;;;;;;;;5030775;28;20407;-89
2024/01/26 13:39:50;;;;;;;0.20;0.20;;;;;;;;;;5032303;28;20045;-91
2024/01/26 13:42:18;;;;;;;0.47;0.17;;;;;;;;;;5031693;28;20053;-90
2024/01/26 13:44:47;;;;;;;0.35;0.20;;;;;;;;;;5032358;28;20409;-91
2024/01/26 13:47:15;;;;;;;0.10;0.10;;;;;;;;;;5031799;28;20065;-90
2024/01/26 13:49:43;;;;;;;2.00;1.90;;;;;;;;;;5028670;28;20455;-90
2024/01/26 13:52:10;;;;;;;5.07;4.68;;;;;;;;;;5043051;28;20053;-91
2024/01/26 13:54:37;;;;;;;0.82;0.82;;;;;;;;;;5031421;28;20053;-91
2024/01/26 13:57:05;;;;;;;0.32;0.20;;;;;;;;;;5031870;28;20045;-90
2024/01/26 13:59:34;;;;;;;0.10;0.10;;;;;;;;;;5036880;28;20068;-87
2024/01/26 14:02:02;;;;;;;0.45;0.30;;;;;;;;;;5038527;28;20053;-88
2024/01/26 14:04:29;;;;;;;0.17;0.17;;;;;;;;;;5031516;28;20410;-91
2024/01/26 14:06:56;;;;;;;0.15;0.15;;;;;;;;;;5026306;28;20144;-90
2024/01/26 14:09:24;;;;;;;0.15;0.15;;;;;;;;;;5035042;28;20053;-90
2024/01/26 14:11:51;;;;;;;0.20;0.20;;;;;;;;;;5035217;28;20123;-90
2024/01/26 14:14:22;;;;;;;0.20;0.20;;;;;;;;;;5035033;28;20452;-91
2024/01/26 14:16:50;;;;;;;0.20;0.20;;;;;;;;;;5035269;28;20144;-90
2024/01/26 14:19:17;;;;;;;0.10;0.10;;;;;;;;;;5034794;28;20053;-90
2024/01/26 14:21:45;;;;;;;1.75;0.30;;;;;;;;;;5035146;28;20858;-88
2024/01/26 14:24:12;;;;;;;1.85;0.20;;;;;;;;;;5034440;28;20140;-91
2024/01/26 14:26:40;;;;;;;3.42;2.08;;;;;;;;;;5035050;28;20049;-91
2024/01/26 14:29:13;;;;;;;2.35;0.80;;;;;;;;;;5035004;28;20053;-90
2024/01/26 14:31:40;;;;;;;0.52;0.30;;;;;;;;;;5034849;28;20060;-88
2024/01/26 14:34:09;;;;;;;2.05;0.50;;;;;;;;;;5034717;28;20432;-91
2024/01/26 14:36:36;;;;;;;1.05;0.57;;;;;;;;;;5034570;28;20056;-88
2024/01/26 14:39:05;;;;;;;1.48;0.30;;;;;;;;;;5035116;28;20046;-89
2024/01/26 14:41:32;;;;;;;0.20;0.20;;;;;;;;;;5023306;28;20552;-89